Time;durP1;ratioP1;P1;durP2;ratioP2;P2;SDS_P1;SDS_P2;PMS_P1;PMS_P2;Temp;Humidity;BMP_temperature;BMP_pressure;BME280_temperature;BME280_humidity;BME280_pressure;Samples;Min_cycle;Max_cycle;Signal;HPM_P1;HPM_P2
2021/07/04 00:00:52;;;;;;;;;3.00;3.00;;;;;19.79;65.06;100054.13;4997775;28;45679;-87
2021/07/04 00:03:18;;;;;;;;;5.00;3.00;;;;;19.82;64.78;100061.91;4997754;28;45202;-88
2021/07/04 00:05:49;;;;;;;;;3.00;3.00;;;;;19.76;64.99;100055.25;4980720;28;45194;-89
2021/07/04 00:08:17;;;;;;;;;4.75;3.50;;;;;19.72;64.93;100058.44;4998058;28;45216;-87
2021/07/04 00:11:08;;;;;;;;;3.25;3.25;;;;;19.75;65.35;100060.81;4997731;28;46202;-87
2021/07/04 00:13:34;;;;;;;;;5.00;4.00;;;;;19.70;65.22;100058.59;4998091;28;45193;-86
2021/07/04 00:16:00;;;;;;;;;4.00;4.00;;;;;19.63;65.23;100047.56;4997712;28;45232;-87
2021/07/04 00:18:29;;;;;;;;;5.25;5.00;;;;;19.59;65.47;100050.75;4997043;28;45332;-88
2021/07/04 00:20:57;;;;;;;;;5.50;4.50;;;;;19.53;65.40;100044.13;4997359;28;45696;-88
2021/07/04 00:23:23;;;;;;;;;6.00;5.25;;;;;19.51;65.50;100039.88;4997392;28;45959;-88
2021/07/04 00:25:49;;;;;;;;;5.00;4.25;;;;;19.50;65.37;100049.84;4997240;28;45366;-88
2021/07/04 00:28:15;;;;;;;;;3.25;3.25;;;;;19.45;65.28;100036.84;4997900;28;45133;-89
2021/07/04 00:30:41;;;;;;;;;4.75;4.00;;;;;19.41;65.56;100030.06;4997424;28;45337;-87
2021/07/04 00:33:06;;;;;;;;;5.25;4.00;;;;;19.38;65.56;100029.50;4997406;28;45208;-89
2021/07/04 00:35:33;;;;;;;;;5.75;4.25;;;;;19.30;65.63;100022.19;4997472;28;45311;-87
2021/07/04 00:37:59;;;;;;;;;6.50;4.00;;;;;19.34;65.57;100017.34;4996042;28;45350;-87
2021/07/04 00:40:25;;;;;;;;;6.50;6.50;;;;;19.26;65.50;100008.16;4996855;28;46328;-85
2021/07/04 00:42:51;;;;;;;;;5.00;4.00;;;;;19.27;65.74;100006.34;4996917;28;45176;-86
2021/07/04 00:45:19;;;;;;;;;3.50;3.50;;;;;19.22;65.87;100000.56;5000023;28;45656;-92
2021/07/04 00:47:45;;;;;;;;;4.75;4.75;;;;;19.14;65.97;99998.66;4997638;28;45322;-92
2021/07/04 00:50:11;;;;;;;;;5.50;5.00;;;;;19.17;65.95;100009.13;4981067;28;47253;-92
2021/07/04 00:52:36;;;;;;;;;8.75;4.50;;;;;18.89;66.24;99968.75;4997358;28;45997;-91
2021/07/04 00:55:07;;;;;;;;;4.25;4.25;;;;;18.98;66.42;99988.53;4996608;28;45190;-90
2021/07/04 00:57:33;;;;;;;;;6.50;5.75;;;;;18.88;66.81;99977.00;4996855;28;45138;-91
2021/07/04 00:59:59;;;;;;;;;6.25;5.50;;;;;18.62;66.50;99937.31;4996196;28;47563;-90
2021/07/04 01:02:25;;;;;;;;;5.50;5.50;;;;;18.85;66.38;99980.81;4997932;28;45218;-94
2021/07/04 01:04:50;;;;;;;;;5.50;5.00;;;;;18.94;67.23;99993.41;4996419;28;45267;-92
2021/07/04 01:07:16;;;;;;;;;4.00;4.00;;;;;18.72;66.79;99961.50;4979822;28;45359;-91
2021/07/04 01:09:43;;;;;;;;;5.75;5.75;;;;;18.78;66.86;99982.41;4979746;28;47286;-91
2021/07/04 01:12:09;;;;;;;;;5.25;5.25;;;;;18.60;66.80;99947.41;4979836;28;46358;-92
2021/07/04 01:14:35;;;;;;;;;4.75;4.00;;;;;18.62;66.95;99961.56;4996402;28;45305;-92
2021/07/04 01:17:00;;;;;;;;;6.00;6.00;;;;;18.65;66.95;99977.41;4979911;28;45250;-91
2021/07/04 01:19:26;;;;;;;;;3.75;3.75;;;;;18.37;67.53;99939.75;4979803;28;47227;-90
2021/07/04 01:21:55;;;;;;;;;8.50;5.00;;;;;18.76;67.28;100000.59;4995896;28;45208;-92
2021/07/04 01:24:22;;;;;;;;;7.25;5.00;;;;;18.72;67.30;99997.34;4996402;28;45326;-91
2021/07/04 01:26:47;;;;;;;;;6.00;5.00;;;;;18.43;67.31;99955.28;4996200;28;45294;-91
2021/07/04 01:29:13;;;;;;;;;6.75;6.00;;;;;18.68;67.28;100003.19;4996016;28;48417;-90
2021/07/04 01:31:38;;;;;;;;;7.00;6.00;;;;;18.34;67.32;99958.91;4996147;28;45724;-91
2021/07/04 01:34:04;;;;;;;;;6.00;6.00;;;;;18.53;67.86;99997.47;4996286;28;45236;-93
2021/07/04 01:36:30;;;;;;;;;8.75;7.00;;;;;18.56;67.73;99994.47;4996166;28;45197;-90
2021/07/04 01:38:55;;;;;;;;;6.50;6.50;;;;;18.49;68.30;99983.44;4979973;28;47056;-92
2021/07/04 01:41:21;;;;;;;;;4.50;4.50;;;;;18.58;68.31;99995.16;4980113;28;45607;-91
2021/07/04 01:43:46;;;;;;;;;7.00;7.00;;;;;18.41;68.28;99967.19;4996170;28;45184;-93
2021/07/04 01:46:11;;;;;;;;;5.75;5.75;;;;;18.58;68.38;99997.84;4980109;28;45209;-90
2021/07/04 01:48:37;;;;;;;;;7.75;7.75;;;;;18.35;68.12;99960.56;4996503;28;46844;-91
2021/07/04 01:51:02;;;;;;;;;8.00;7.00;;;;;18.49;68.54;99979.91;4982802;28;45142;-91
2021/07/04 01:53:28;;;;;;;;;6.00;6.00;;;;;18.42;68.10;99969.72;4999444;28;45071;-91
2021/07/04 01:55:54;;;;;;;;;7.00;6.00;;;;;18.40;68.41;99969.06;4999479;28;45204;-92
2021/07/04 01:58:19;;;;;;;;;11.75;6.75;;;;;18.54;68.26;99993.75;5000641;28;45455;-91
2021/07/04 02:00:45;;;;;;;;;8.00;7.00;;;;;18.27;68.12;99947.88;4999443;28;45619;-91
2021/07/04 02:03:11;;;;;;;;;7.00;7.00;;;;;18.46;68.96;99981.06;4999746;28;45276;-93
2021/07/04 02:05:38;;;;;;;;;10.50;7.00;;;;;18.56;69.02;99983.69;4982825;28;45553;-91
2021/07/04 02:08:05;;;;;;;;;5.50;5.00;;;;;18.37;68.74;99950.50;5000734;28;45363;-91
2021/07/04 02:10:33;;;;;;;;;10.00;7.75;;;;;18.40;68.99;99952.91;4982894;28;45530;-95
2021/07/04 02:12:59;;;;;;;;;8.00;8.00;;;;;18.62;68.86;99986.63;4999557;28;45175;-92
2021/07/04 02:15:30;;;;;;;;;8.00;6.50;;;;;18.59;68.94;99968.06;5000337;28;45177;-91
2021/07/04 02:17:56;;;;;;;;;8.00;5.75;;;;;18.67;69.09;99979.94;4999338;28;47546;-92
2021/07/04 02:20:24;;;;;;;;;8.00;5.00;;;;;18.70;68.28;99977.81;5000277;28;45239;-93
2021/07/04 02:22:49;;;;;;;;;8.25;7.00;;;;;18.55;67.68;99958.59;4999239;28;45285;-92
2021/07/04 02:25:15;;;;;;;;;6.00;4.75;;;;;18.56;67.93;99960.31;4998652;28;45270;-92
2021/07/04 02:27:40;;;;;;;;;5.75;5.75;;;;;18.61;67.92;99978.69;4982602;28;46883;-92
2021/07/04 02:30:06;;;;;;;;;7.25;7.00;;;;;18.61;67.96;99976.88;4999312;28;45354;-92
2021/07/04 02:32:31;;;;;;;;;5.00;5.00;;;;;18.60;68.23;99982.41;5000311;28;45280;-91
2021/07/04 02:34:57;;;;;;;;;7.25;5.75;;;;;18.40;68.07;99957.44;4998859;28;45383;-92
2021/07/04 02:37:22;;;;;;;;;7.75;7.00;;;;;18.52;68.33;99976.91;4998886;28;48193;-92
2021/07/04 02:39:47;;;;;;;;;6.00;6.00;;;;;18.41;68.17;99960.00;4982129;28;45347;-91
2021/07/04 02:42:13;;;;;;;;;6.50;6.00;;;;;18.28;68.23;99937.94;4999224;28;45265;-90
2021/07/04 02:44:38;;;;;;;;;7.00;7.00;;;;;18.19;68.30;99928.09;4982458;28;45170;-92
2021/07/04 02:47:04;;;;;;;;;8.00;6.00;;;;;18.58;68.30;99993.31;4999957;28;45252;-91
2021/07/04 02:49:29;;;;;;;;;4.50;4.50;;;;;18.35;68.42;99948.97;4998514;28;45193;-92
2021/07/04 02:51:54;;;;;;;;;6.00;6.00;;;;;18.35;68.60;99936.34;4981778;28;45250;-90
2021/07/04 02:54:20;;;;;;;;;6.50;6.50;;;;;18.54;68.80;99967.69;4999006;28;45208;-90
2021/07/04 02:56:45;;;;;;;;;6.50;6.00;;;;;18.51;68.82;99957.22;4998311;28;48217;-92
2021/07/04 02:59:10;;;;;;;;;5.00;5.00;;;;;18.37;69.31;99936.19;4981973;28;46191;-92
2021/07/04 03:01:36;;;;;;;;;6.25;4.75;;;;;18.65;69.36;99982.78;4997079;28;45317;-91
2021/07/04 03:04:01;;;;;;;;;5.75;5.75;;;;;18.27;69.90;99912.03;4998584;28;45094;-89
2021/07/04 03:06:26;;;;;;;;;4.50;4.50;;;;;18.41;69.73;99946.53;4981912;28;47898;-91
2021/07/04 03:08:52;;;;;;;;;4.75;3.75;;;;;18.54;69.77;99959.63;4999819;28;45133;-93
2021/07/04 03:11:17;;;;;;;;;5.00;5.00;;;;;18.56;69.95;99963.00;4999184;28;45201;-92
2021/07/04 03:13:42;;;;;;;;;6.50;5.00;;;;;18.50;69.95;99942.09;4998407;28;45155;-92
2021/07/04 03:16:08;;;;;;;;;5.00;5.00;;;;;18.30;70.07;99906.38;4997407;28;46945;-92
2021/07/04 03:18:33;;;;;;;;;4.75;4.75;;;;;18.39;69.92;99920.75;4997962;28;45218;-92
2021/07/04 03:20:58;;;;;;;;;8.00;8.00;;;;;18.55;69.97;99950.53;4997834;28;45259;-92
2021/07/04 03:23:24;;;;;;;;;6.25;5.00;;;;;18.63;69.87;99960.56;4981779;28;45480;-91
2021/07/04 03:25:49;;;;;;;;;6.50;5.25;;;;;18.57;70.46;99939.59;4997873;28;47542;-91
2021/07/04 03:28:14;;;;;;;;;5.25;5.00;;;;;18.41;70.31;99913.38;4982259;28;45211;-91
2021/07/04 03:30:40;;;;;;;;;6.50;5.25;;;;;18.41;69.89;99919.63;4997943;28;45204;-92
2021/07/04 03:33:05;;;;;;;;;7.00;6.00;;;;;18.50;69.59;99916.97;4998079;28;45333;-92
2021/07/04 03:35:31;;;;;;;;;6.50;6.00;;;;;18.47;70.00;99918.16;4997665;28;47220;-91
2021/07/04 03:37:56;;;;;;;;;5.75;5.75;;;;;18.62;70.17;99940.84;4981302;28;45233;-91
2021/07/04 03:40:22;;;;;;;;;5.25;4.00;;;;;18.63;69.74;99942.56;4997547;28;45323;-92
2021/07/04 03:42:48;;;;;;;;;3.50;3.00;;;;;18.26;69.77;99883.44;4981277;28;45239;-93
2021/07/04 03:45:13;;;;;;;;;3.50;3.50;;;;;18.44;69.93;99902.28;4997438;28;47548;-90
2021/07/04 03:47:40;;;;;;;;;5.00;4.00;;;;;18.51;69.80;99916.84;4998744;28;45332;-93
2021/07/04 03:50:06;;;;;;;;;4.00;4.00;;;;;18.64;69.23;99935.34;4981544;28;45195;-92
2021/07/04 03:52:32;;;;;;;;;4.00;4.00;;;;;18.62;69.34;99937.31;4998077;28;45110;-92
2021/07/04 03:54:58;;;;;;;;;3.25;3.25;;;;;18.52;69.08;99921.22;4980794;28;46980;-94
2021/07/04 03:57:23;;;;;;;;;3.50;3.00;;;;;18.55;69.14;99917.38;4980991;28;45177;-93
2021/07/04 03:59:53;;;;;;;;;3.00;3.00;;;;;18.61;69.36;99935.63;4980675;28;45376;-92
2021/07/04 04:02:19;;;;;;;;;3.00;3.00;;;;;18.59;69.15;99924.16;4981319;28;45208;-91
2021/07/04 04:04:45;;;;;;;;;4.00;3.25;;;;;18.54;69.03;99910.31;4997573;28;47138;-91
2021/07/04 04:07:10;;;;;;;;;5.25;4.50;;;;;18.50;68.47;99909.78;4981151;28;45423;-91
2021/07/04 04:09:36;;;;;;;;;3.00;2.00;;;;;18.33;68.96;99871.06;4981227;28;45354;-92
2021/07/04 04:12:01;;;;;;;;;5.00;4.25;;;;;18.61;68.48;99908.69;4980826;28;45257;-92
2021/07/04 04:14:26;;;;;;;;;2.50;2.50;;;;;18.53;68.49;99905.94;4981370;28;46887;-92
2021/07/04 04:16:52;;;;;;;;;3.00;3.00;;;;;18.34;68.54;99872.78;4981003;28;45152;-92
2021/07/04 04:19:17;;;;;;;;;2.75;2.75;;;;;18.61;68.81;99923.03;4997490;28;45234;-93
2021/07/04 04:21:42;;;;;;;;;3.00;3.00;;;;;18.54;68.93;99907.63;4997397;28;45438;-91
2021/07/04 04:24:08;;;;;;;;;5.50;4.00;;;;;18.58;68.28;99909.00;4980749;28;47084;-92
2021/07/04 04:26:33;;;;;;;;;5.00;4.00;;;;;18.65;68.73;99915.47;4996636;28;46262;-92
2021/07/04 04:28:58;;;;;;;;;5.50;3.75;;;;;18.63;68.24;99921.00;4981059;28;45229;-92
2021/07/04 04:31:24;;;;;;;;;3.00;3.00;;;;;18.63;68.73;99910.25;4997427;28;45288;-90
2021/07/04 04:33:49;;;;;;;;;2.25;2.00;;;;;18.45;68.41;99885.16;4996282;28;47005;-90
2021/07/04 04:36:14;;;;;;;;;4.00;4.00;;;;;18.52;68.62;99898.84;4996557;28;45294;-93
2021/07/04 04:38:40;;;;;;;;;4.00;4.00;;;;;18.69;68.97;99927.63;4980738;28;45272;-91
2021/07/04 04:41:05;;;;;;;;;3.75;3.25;;;;;18.71;68.66;99939.09;4998508;28;45525;-94
2021/07/04 04:43:31;;;;;;;;;3.00;3.00;;;;;18.69;68.73;99951.03;4980494;28;47926;-92
2021/07/04 04:45:56;;;;;;;;;3.75;3.00;;;;;18.56;68.45;99924.47;4996644;28;45554;-93
2021/07/04 04:48:21;;;;;;;;;4.00;3.25;;;;;18.68;68.22;99946.63;4980627;28;45269;-91
2021/07/04 04:50:47;;;;;;;;;2.75;2.75;;;;;18.40;68.24;99909.00;4998470;28;45201;-91
2021/07/04 04:53:12;;;;;;;;;4.00;3.50;;;;;18.44;68.19;99922.00;4996733;28;47199;-91
2021/07/04 04:55:38;;;;;;;;;3.00;3.00;;;;;18.41;68.12;99918.75;4996552;28;45963;-91
2021/07/04 04:58:03;;;;;;;;;3.50;3.00;;;;;18.68;68.41;99965.47;4996524;28;45255;-91
2021/07/04 05:00:28;;;;;;;;;3.25;3.25;;;;;18.69;68.01;99962.63;4980402;28;45315;-92
2021/07/04 05:02:54;;;;;;;;;2.50;2.50;;;;;18.36;67.89;99916.53;4996674;28;48496;-90
2021/07/04 05:05:19;;;;;;;;;3.00;3.00;;;;;18.68;67.77;99971.69;4996435;28;45141;-92
2021/07/04 05:07:44;;;;;;;;;3.25;3.25;;;;;18.54;68.05;99950.69;4980245;28;45231;-92
2021/07/04 05:10:11;;;;;;;;;5.25;3.50;;;;;18.64;68.30;99964.94;4996417;28;45320;-93
2021/07/04 05:12:36;;;;;;;;;3.50;3.00;;;;;18.54;68.28;99934.53;4996550;28;48207;-91
2021/07/04 05:15:02;;;;;;;;;5.00;4.00;;;;;18.64;68.11;99948.78;4996538;28;45348;-92
2021/07/04 05:17:28;;;;;;;;;4.50;3.50;;;;;18.66;68.09;99948.66;4980293;28;45165;-92
2021/07/04 05:19:53;;;;;;;;;3.00;3.00;;;;;18.59;67.99;99937.63;4995967;28;45351;-91
2021/07/04 05:22:18;;;;;;;;;3.50;3.00;;;;;18.71;67.84;99966.03;4979746;28;48074;-92
2021/07/04 05:24:44;;;;;;;;;3.00;3.00;;;;;18.50;68.16;99947.47;4997888;28;45240;-91
2021/07/04 05:27:09;;;;;;;;;6.00;2.25;;;;;18.30;68.10;99922.50;4983451;28;45186;-90
2021/07/04 05:29:34;;;;;;;;;6.00;3.25;;;;;18.52;68.50;99960.78;4999634;28;45211;-91
2021/07/04 05:32:00;;;;;;;;;3.00;3.00;;;;;18.52;68.29;99945.44;4999633;28;46871;-92
2021/07/04 05:34:27;;;;;;;;;3.00;3.00;;;;;18.61;68.27;99949.06;4999443;28;45806;-91
2021/07/04 05:36:52;;;;;;;;;4.00;2.50;;;;;18.48;68.10;99925.22;4983214;28;45290;-92
2021/07/04 05:39:18;;;;;;;;;3.00;3.00;;;;;18.53;67.67;99927.47;4985201;28;45278;-92
2021/07/04 05:41:43;;;;;;;;;4.00;2.75;;;;;18.51;67.54;99932.97;4999268;28;47123;-92
2021/07/04 05:44:08;;;;;;;;;2.00;2.00;;;;;18.68;68.06;99958.25;4983240;28;45422;-92
2021/07/04 05:46:35;;;;;;;;;3.50;2.50;;;;;18.68;67.57;99952.84;4998929;28;45154;-91
2021/07/04 05:49:00;;;;;;;;;4.00;3.50;;;;;18.66;68.01;99948.66;5000050;28;45144;-92
2021/07/04 05:51:26;;;;;;;;;2.75;2.00;;;;;18.45;67.95;99920.13;4999991;28;47381;-93
2021/07/04 05:53:51;;;;;;;;;3.75;2.25;;;;;18.67;67.60;99948.50;4999629;28;45168;-92
2021/07/04 05:56:16;;;;;;;;;2.25;2.25;;;;;18.62;67.39;99932.78;4999118;28;45187;-92
2021/07/04 05:58:42;;;;;;;;;4.00;3.00;;;;;18.65;67.77;99933.47;4982887;28;45403;-92
2021/07/04 06:01:07;;;;;;;;;2.00;2.00;;;;;18.63;67.57;99923.69;4999859;28;46950;-91
2021/07/04 06:03:33;;;;;;;;;3.75;2.25;;;;;18.67;67.90;99932.34;4999008;28;45737;-92
2021/07/04 06:05:58;;;;;;;;;3.00;3.00;;;;;18.56;68.03;99924.47;4999337;28;45480;-92
2021/07/04 06:08:24;;;;;;;;;2.00;2.00;;;;;18.80;67.58;99957.03;5000580;28;45125;-91
2021/07/04 06:10:51;;;;;;;;;3.50;3.00;;;;;18.78;67.48;99956.34;4999033;28;47413;-91
2021/07/04 06:13:17;;;;;;;;;1.50;1.50;;;;;18.53;67.48;99914.03;4999366;28;45240;-93
2021/07/04 06:15:42;;;;;;;;;2.75;2.00;;;;;18.70;67.36;99934.72;4982754;28;45243;-92
2021/07/04 06:18:08;;;;;;;;;2.00;2.00;;;;;18.70;67.89;99934.72;4982485;28;45178;-93
2021/07/04 06:20:33;;;;;;;;;4.25;3.25;;;;;18.65;67.90;99917.31;4982476;28;48189;-91
2021/07/04 06:22:58;;;;;;;;;5.00;3.75;;;;;18.74;67.51;99924.47;4998839;28;45972;-91
2021/07/04 06:25:24;;;;;;;;;7.00;4.00;;;;;18.95;67.70;99965.47;4998964;28;45184;-92
2021/07/04 06:27:50;;;;;;;;;3.50;3.00;;;;;18.97;67.67;99958.06;4999369;28;45376;-91
2021/07/04 06:30:16;;;;;;;;;4.00;3.00;;;;;19.05;67.65;99956.44;5000015;28;46532;-91
2021/07/04 06:32:42;;;;;;;;;5.00;2.75;;;;;18.93;67.53;99932.44;4982449;28;45232;-92
2021/07/04 06:35:10;;;;;;;;;3.25;3.25;;;;;18.89;67.10;99916.75;4998469;28;45650;-91
2021/07/04 06:37:36;;;;;;;;;5.00;3.00;;;;;19.15;68.12;99965.28;4999095;28;45328;-91
2021/07/04 06:40:03;;;;;;;;;3.75;3.00;;;;;18.70;68.55;99888.06;4998153;28;47598;-93
2021/07/04 06:42:29;;;;;;;;;4.25;2.50;;;;;19.00;68.86;99940.75;4998620;28;45265;-93
2021/07/04 06:44:54;;;;;;;;;3.75;3.50;;;;;19.13;68.33;99943.06;4982169;28;45256;-93
2021/07/04 06:47:19;;;;;;;;;2.00;2.00;;;;;19.09;68.23;99941.66;4998613;28;45441;-94
2021/07/04 06:49:45;;;;;;;;;2.25;2.00;;;;;19.00;67.95;99921.03;4998537;28;48440;-93
2021/07/04 06:52:10;;;;;;;;;4.00;2.00;;;;;19.17;68.04;99943.56;4982169;28;45551;-93
2021/07/04 06:54:36;;;;;;;;;2.00;2.00;;;;;19.30;67.90;99957.50;4983018;28;45207;-93
2021/07/04 06:57:26;;;;;;;;;3.00;3.00;;;;;19.19;67.91;99930.81;4999663;28;45107;-92
2021/07/04 06:59:47;;;;;;;;;2.75;2.75;;;;;19.35;67.81;99938.16;5000316;28;45187;-87
2021/07/04 07:02:13;;;;;;;;;3.00;2.00;;;;;19.41;67.47;99938.41;4998179;28;45475;-85
2021/07/04 07:04:38;;;;;;;;;2.50;2.00;;;;;19.48;67.42;99935.91;4998174;28;45185;-85
2021/07/04 07:07:03;;;;;;;;;6.75;5.75;;;;;19.58;66.99;99935.78;4998426;28;45236;-84
2021/07/04 07:09:29;;;;;;;;;13.00;13.00;;;;;19.61;67.16;99930.94;4980380;28;47074;-87
2021/07/04 07:11:54;;;;;;;;;6.75;5.00;;;;;19.66;66.57;99930.47;4999293;28;45121;-90
2021/07/04 07:14:21;;;;;;;;;11.25;8.25;;;;;19.75;66.57;99931.34;4999916;28;45189;-91
2021/07/04 07:16:47;;;;;;;;;7.25;4.75;;;;;19.78;66.29;99939.97;4999231;28;45256;-88
2021/07/04 07:19:12;;;;;;;;;8.25;6.00;;;;;19.84;66.23;99938.53;4999840;28;45697;-86
2021/07/04 07:21:37;;;;;;;;;6.00;6.00;;;;;19.86;66.13;99935.66;4998276;28;45352;-88
2021/07/04 07:24:03;;;;;;;;;3.00;3.00;;;;;19.87;65.75;99934.69;4998274;28;45603;-88
2021/07/04 07:26:28;;;;;;;;;2.00;2.00;;;;;19.97;65.73;99948.88;4998986;28;45178;-87
2021/07/04 07:28:54;;;;;;;;;3.50;2.25;;;;;20.07;65.78;99946.91;4997940;28;45891;-88
2021/07/04 07:31:20;;;;;;;;;3.75;3.00;;;;;20.25;65.87;99954.06;4998441;28;45237;-91
2021/07/04 07:33:46;;;;;;;;;5.00;3.00;;;;;20.44;65.89;99952.97;5002035;28;45275;-89
2021/07/04 07:36:11;;;;;;;;;2.50;2.50;;;;;20.56;64.40;99935.44;4999543;28;45607;-92
2021/07/04 07:38:36;;;;;;;;;4.75;3.00;;;;;20.59;64.52;99937.78;4999512;28;45081;-92
2021/07/04 07:41:02;;;;;;;;;2.00;2.00;;;;;20.88;63.70;99968.09;4997959;28;45276;-89
2021/07/04 07:43:27;;;;;;;;;4.75;2.00;;;;;20.88;63.58;99960.88;4997685;28;45141;-87
2021/07/04 07:45:53;;;;;;;;;2.50;2.00;;;;;20.90;62.98;99953.41;4998668;28;45085;-92
2021/07/04 07:48:18;;;;;;;;;5.75;1.75;;;;;20.97;62.54;99969.81;4998371;28;45268;-92
2021/07/04 07:50:43;;;;;;;;;2.00;2.00;;;;;20.94;62.82;99967.47;4998092;28;45483;-89
2021/07/04 07:53:08;;;;;;;;;2.00;2.00;;;;;20.83;62.72;99963.22;4997820;28;45232;-89
2021/07/04 07:55:34;;;;;;;;;2.25;2.00;;;;;20.85;63.12;99959.34;4997913;28;45243;-89
2021/07/04 07:57:59;;;;;;;;;2.00;2.00;;;;;20.98;62.42;99974.22;4997824;28;45435;-86
2021/07/04 08:00:24;;;;;;;;;2.00;2.00;;;;;21.04;62.59;99978.94;4997503;28;45383;-88
2021/07/04 08:02:50;;;;;;;;;4.00;1.75;;;;;21.04;63.74;99971.69;5003000;28;45141;-92
2021/07/04 08:05:15;;;;;;;;;3.00;2.00;;;;;20.92;64.67;99980.28;5010695;28;45285;-91
2021/07/04 08:07:41;;;;;;;;;3.00;2.00;;;;;20.74;65.26;99973.16;5005582;28;45077;-92
2021/07/04 08:10:07;;;;;;;;;2.00;2.00;;;;;20.52;66.03;99970.03;5007562;28;44702;-93
2021/07/04 08:12:32;;;;;;;;;2.75;2.00;;;;;20.33;65.75;99964.91;5010086;28;45212;-93
2021/07/04 08:14:57;;;;;;;;;1.75;1.50;;;;;20.05;67.05;99948.06;4990697;28;45304;-90
2021/07/04 08:17:23;;;;;;;;;2.00;2.00;;;;;19.99;66.86;99954.94;5004388;28;46263;-92
2021/07/04 08:19:48;;;;;;;;;2.75;2.00;;;;;19.85;67.05;99959.09;5005702;28;45223;-91
2021/07/04 08:22:14;;;;;;;;;4.25;2.25;;;;;19.69;68.34;99954.41;5005559;28;45153;-92
2021/07/04 08:24:39;;;;;;;;;2.00;2.00;;;;;19.61;69.01;99957.91;5002718;28;45102;-92
2021/07/04 08:27:05;;;;;;;;;2.00;2.00;;;;;19.52;68.64;99961.53;5003383;28;45262;-91
2021/07/04 08:29:30;;;;;;;;;1.25;1.00;;;;;19.42;69.01;99964.31;5002639;28;45273;-92
2021/07/04 08:31:56;;;;;;;;;3.50;2.50;;;;;19.33;68.56;99950.97;5002941;28;45101;-92
2021/07/04 08:34:21;;;;;;;;;3.75;2.00;;;;;19.29;68.78;99953.97;5003574;28;45125;-93
2021/07/04 08:36:46;;;;;;;;;2.00;2.00;;;;;19.23;68.76;99951.91;5003592;28;45197;-92
2021/07/04 08:39:12;;;;;;;;;0.00;0.00;;;;;19.19;69.48;99950.50;5004919;28;45141;-89
2021/07/04 08:41:37;;;;;;;;;1.00;1.00;;;;;19.18;69.64;99940.72;4997824;28;45217;-86
2021/07/04 08:44:05;;;;;;;;;2.75;1.50;;;;;19.23;68.40;99951.06;4996935;28;45215;-89
2021/07/04 08:46:31;;;;;;;;;0.00;0.00;;;;;19.24;68.74;99944.63;4995454;28;47414;-88
2021/07/04 08:48:56;;;;;;;;;0.00;0.00;;;;;19.30;68.72;99952.97;4996991;28;45288;-88
2021/07/04 08:51:21;;;;;;;;;1.00;0.00;;;;;19.39;68.32;99944.94;4996321;28;45470;-87
2021/07/04 08:53:47;;;;;;;;;0.00;0.00;;;;;19.43;67.90;99930.16;4996705;28;45320;-88
2021/07/04 08:56:12;;;;;;;;;0.00;0.00;;;;;19.60;67.64;99950.81;4996069;28;45982;-87
2021/07/04 08:58:38;;;;;;;;;0.00;0.00;;;;;19.61;67.16;99939.03;4995277;28;45296;-89
2021/07/04 09:01:16;;;;;;;;;0.00;0.00;;;;;19.69;66.68;99942.78;4996959;28;45276;-90
2021/07/04 09:03:52;;;;;;;;;0.00;0.00;;;;;19.67;66.84;99943.78;4980547;28;45250;-90
2021/07/04 09:06:40;;;;;;;;;0.00;0.00;;;;;19.72;66.87;99942.47;4996461;28;46460;-89
2021/07/04 09:09:19;;;;;;;;;0.00;0.00;;;;;19.76;66.72;99938.44;4997540;28;45218;-87
2021/07/04 09:11:55;;;;;;;;;0.00;0.00;;;;;19.91;66.53;99938.72;5002295;28;45194;-93
2021/07/04 09:14:31;;;;;;;;;0.00;0.00;;;;;20.06;66.31;99945.19;5008803;28;44552;-93
2021/07/04 09:16:58;;;;;;;;;0.00;0.00;;;;;20.21;65.12;99934.66;5001593;28;45336;-90
2021/07/04 09:19:24;;;;;;;;;0.00;0.00;;;;;20.37;64.36;99941.13;4983233;28;45194;-92
2021/07/04 09:22:02;;;;;;;;;0.00;0.00;;;;;20.53;64.21;99933.91;5007927;28;45245;-87
2021/07/04 09:24:31;;;;;;;;;0.00;0.00;;;;;20.55;63.74;99920.25;4996171;28;45261;-87
2021/07/04 09:26:57;;;;;;;;;0.00;0.00;;;;;20.76;64.14;99930.59;4995815;28;46225;-88
2021/07/04 09:29:58;;;;;;;;;0.00;0.00;;;;;20.99;63.34;99917.31;4996164;28;45196;-86
2021/07/04 09:32:28;;;;;;;;;1.00;0.25;;;;;21.11;62.62;99923.22;4935994;28;45354;-88
2021/07/04 09:34:58;;;;;;;;;0.00;0.00;;;;;21.27;62.55;99918.81;4936415;28;45250;-89
2021/07/04 09:37:29;;;;;;;;;0.75;0.75;;;;;21.55;63.94;99912.03;4951266;28;45279;-91
2021/07/04 09:40:12;;;;;;;;;1.00;0.00;;;;;21.86;62.10;99897.75;4947689;28;45297;-91
2021/07/04 09:42:55;;;;;;;;;0.75;0.75;;;;;22.18;59.90;99911.34;4942467;28;45171;-89
2021/07/04 09:45:22;;;;;;;;;0.00;0.00;;;;;22.20;59.69;99909.28;4946203;28;45223;-92
2021/07/04 09:47:55;;;;;;;;;1.25;1.25;;;;;22.26;59.92;99927.56;4946312;28;45224;-90
2021/07/04 09:50:21;;;;;;;;;3.00;1.00;;;;;22.20;59.58;99910.16;4945744;28;45425;-90
2021/07/04 09:53:01;;;;;;;;;1.00;1.00;;;;;22.09;60.08;99915.94;4940816;28;45270;-91
2021/07/04 09:55:27;;;;;;;;;1.25;1.00;;;;;21.98;59.56;99903.63;4938893;28;45330;-87
2021/07/04 09:57:59;;;;;;;;;1.50;1.50;;;;;21.78;60.08;99910.47;4919583;28;47449;-88
2021/07/04 10:00:32;;;;;;;;;2.00;2.00;;;;;21.58;60.29;99891.06;4935482;28;45379;-89
2021/07/04 10:03:04;;;;;;;;;1.50;1.00;;;;;21.52;61.04;99906.13;4936520;28;45132;-86
2021/07/04 10:05:30;;;;;;;;;2.00;2.00;;;;;21.45;61.87;99900.53;4943395;28;45401;-85
2021/07/04 10:07:56;;;;;;;;;2.00;2.00;;;;;21.45;61.81;99897.84;4995672;28;45321;-86
2021/07/04 10:10:21;;;;;;;;;2.50;1.00;;;;;21.43;61.59;99893.59;4997248;28;45293;-86
2021/07/04 10:12:46;;;;;;;;;1.00;1.00;;;;;21.48;62.20;99893.94;4999528;28;45178;-85
2021/07/04 10:15:12;;;;;;;;;1.00;1.00;;;;;21.50;61.71;99875.69;4999801;28;45225;-86
2021/07/04 10:17:38;;;;;;;;;1.00;1.00;;;;;21.66;60.73;99880.22;4999382;28;45884;-85
2021/07/04 10:20:05;;;;;;;;;0.00;0.00;;;;;21.77;60.28;99884.44;4999039;28;45344;-84
2021/07/04 10:22:36;;;;;;;;;1.75;1.00;;;;;21.86;59.64;99889.66;4998753;28;45264;-83
2021/07/04 10:25:04;;;;;;;;;1.00;1.00;;;;;21.97;60.48;99880.28;4999351;28;45094;-84
2021/07/04 10:27:31;;;;;;;;;0.75;0.75;;;;;22.21;59.16;99886.63;4998540;28;47053;-84
2021/07/04 10:29:56;;;;;;;;;0.00;0.00;;;;;22.46;58.31;99881.94;4998797;28;45277;-86
2021/07/04 10:32:22;;;;;;;;;0.50;0.50;;;;;22.82;58.29;99877.81;4998828;28;45266;-85
2021/07/04 10:34:48;;;;;;;;;0.25;0.25;;;;;23.18;56.34;99888.03;4981091;28;45257;-84
2021/07/04 10:37:16;;;;;;;;;1.00;1.00;;;;;23.29;56.90;99859.59;4998354;28;46330;-83
2021/07/04 10:39:41;;;;;;;;;1.00;1.00;;;;;23.36;55.55;99866.84;4996847;28;45466;-85
2021/07/04 10:42:11;;;;;;;;;1.50;0.00;;;;;23.45;56.42;99867.59;4998608;28;45257;-84
2021/07/04 10:44:45;;;;;;;;;1.00;1.00;;;;;23.63;56.51;99864.53;4998572;28;45266;-87
2021/07/04 10:47:13;;;;;;;;;1.00;1.00;;;;;23.79;56.00;99871.63;4998024;28;45475;-83
2021/07/04 10:49:44;;;;;;;;;0.50;0.00;;;;;23.89;56.51;99877.63;4997785;28;45509;-84
2021/07/04 10:52:18;;;;;;;;;2.00;1.00;;;;;23.73;55.65;99870.50;5001380;28;45245;-87
2021/07/04 10:54:50;;;;;;;;;0.75;0.75;;;;;23.40;59.00;99879.00;4998711;28;45452;-87
2021/07/04 10:57:21;;;;;;;;;1.25;1.00;;;;;23.18;59.32;99872.59;4999261;28;46110;-88
2021/07/04 11:00:05;;;;;;;;;1.25;0.25;;;;;23.00;60.44;99870.19;4998430;28;45647;-89
2021/07/04 11:02:42;;;;;;;;;1.00;0.75;;;;;22.98;59.56;99866.81;4999091;28;45220;-89
2021/07/04 11:05:09;;;;;;;;;2.00;1.00;;;;;23.06;60.25;99866.75;4998649;28;45351;-89
2021/07/04 11:07:52;;;;;;;;;0.00;0.00;;;;;23.23;60.23;99856.63;4998586;28;46121;-88
2021/07/04 11:10:22;;;;;;;;;0.25;0.25;;;;;23.33;58.99;99844.66;4998318;28;45391;-87
2021/07/04 11:12:49;;;;;;;;;1.50;1.00;;;;;23.31;58.11;99830.44;4999665;28;45255;-91
2021/07/04 11:15:14;;;;;;;;;2.00;2.00;;;;;23.40;57.37;99834.75;4981377;28;45316;-89
2021/07/04 11:17:55;;;;;;;;;3.00;2.00;;;;;23.59;57.34;99842.31;4998819;28;46076;-89
2021/07/04 11:20:30;;;;;;;;;1.00;1.00;;;;;23.64;54.83;99828.19;4997785;28;45265;-87
2021/07/04 11:23:10;;;;;;;;;0.75;0.75;;;;;23.65;55.55;99827.16;4996865;28;45300;-87
2021/07/04 11:25:44;;;;;;;;;1.25;1.25;;;;;23.81;56.28;99828.84;4998619;28;45299;-83
2021/07/04 11:28:15;;;;;;;;;0.00;0.00;;;;;24.06;55.11;99820.41;4997580;28;45326;-82
2021/07/04 11:30:51;;;;;;;;;0.00;0.00;;;;;24.13;53.70;99814.00;4997606;28;45411;-83